Latest Weather Observations for Kununurra Airport

IDW60801

Issued at 6:02 pm WST Saturday 30 May 2015 (issued every 30 minutes, with the page automatically refreshed every 10 minutes)

About weather observations | Map of weather stations | Latest weather observations for WA | Other Formats
Station Details ID: 002056 Name: KUNUNURRA AERO Lat: -15.78 Lon: 128.71 Height: 44.0 m
Data from the previous 72 hours. | See also: Recent months at Kununurra Airport
Date/Time
WST
Temp
°C
App
Temp
°C
Dew
Point
Rel
Hum
%
Delta-T
°C
Wind Press
QNH
hPa
Press
MSL
hPa
Rain
since 9 am
mm
Dir
 
Spd
km/h
Gust
km/h
Spd
kts
Gust
kts
30/06:00pm 27.7 30.2 17.2 52 6.6 CALM 0 0 0 0 1012.0 1011.8 0.0
30/05:30pm 29.2 31.4 16.4 46 8.0 CALM 0 0 0 0 1011.6 1011.4 0.0
30/05:00pm 30.8 32.8 15.9 40 9.3 CALM 0 0 0 0 1011.3 1011.1 0.0
30/04:30pm 33.6 35.0 14.4 31 11.8 CALM 0 0 0 0 1010.9 1010.7 0.0
30/04:00pm 34.3 34.4 12.7 27 13.0 SSE 4 9 2 5 1010.3 1010.1 0.0
30/03:30pm 35.1 34.0 9.9 21 14.6 ESE 6 9 3 5 1010.4 1010.2 0.0
30/03:00pm 35.6 34.5 10.5 21 14.7 SE 7 13 4 7 1010.3 1010.1 0.0
30/02:30pm 35.4 33.3 9.9 21 14.8 NE 11 20 6 11 1010.6 1010.4 0.0
30/02:00pm 35.3 32.9 10.0 21 14.7 ESE 13 20 7 11 1010.7 1010.5 0.0
30/01:30pm 35.1 32.0 8.7 20 15.0 SE 15 22 8 12 1011.0 1010.8 0.0
30/01:00pm 35.3 32.9 8.8 19 15.1 SE 11 19 6 10 1011.4 1011.2 0.0
30/12:30pm 34.8 31.7 8.7 20 14.8 ESE 15 22 8 12 1011.9 1011.7 0.0
30/12:00pm 35.5 33.0 9.7 20 14.9 SE 13 20 7 11 1012.2 1012.0 0.0
30/11:30am 34.5 33.2 11.2 24 13.7 ESE 9 15 5 8 1012.8 1012.6 0.0
30/11:00am 33.7 32.3 10.9 25 13.3 SE 9 15 5 8 1013.1 1012.9 0.0
30/10:30am 33.8 31.2 10.8 24 13.4 SE 15 19 8 10 1013.8 1013.6 0.0
30/10:00am 33.2 29.7 10.3 24 13.2 E 19 24 10 13 1014.3 1014.1 0.0
30/09:30am 32.3 30.2 12.4 29 11.8 ENE 15 20 8 11 1014.9 1014.7 0.0
30/09:00am 31.4 30.8 13.6 33 10.7 ENE 9 13 5 7 1015.2 1015.0 0.0
30/08:30am 30.1 30.2 14.5 38 9.5 S 7 9 4 5 1015.2 1015.0 0.0
30/08:00am 28.8 27.8 13.5 39 9.1 SW 11 15 6 8 1015.3 1015.1 0.0
30/07:30am 26.2 26.6 14.7 49 6.9 WSW 6 7 3 4 1015.1 1014.9 0.0
30/07:00am 24.0 25.7 16.1 61 4.8 ENE 2 6 1 3 1014.8 1014.6 0.0
30/06:30am 19.9 21.5 15.9 78 2.4 SSW 2 7 1 4 1014.5 1014.3 0.0
30/06:00am 19.1 20.1 15.4 79 2.2 NW 4 6 2 3 1014.4 1014.2 0.0
30/05:30am 18.3 20.1 15.6 84 1.6 CALM 0 0 0 0 1014.1 1013.9 0.0
30/05:00am 19.3 20.1 15.8 80 2.1 S 6 7 3 4 1013.8 1013.6 0.0
30/04:30am 19.0 20.9 15.8 82 1.9 CALM 0 0 0 0 1013.6 1013.4 0.0
30/04:00am 19.2 20.1 16.2 83 1.8 SE 6 7 3 4 1013.7 1013.5 0.0
30/03:30am 19.8 20.9 16.5 81 2.0 SE 6 7 3 4 1013.5 1013.3 0.0
30/03:00am 19.3 20.4 16.5 84 1.7 ESE 6 7 3 4 1013.5 1013.3 0.0
30/02:30am 19.2 21.1 15.8 81 2.0 CALM 0 0 0 0 1013.6 1013.4 0.0
30/02:00am 18.8 20.7 15.8 83 1.8 CALM 0 0 0 0 1013.7 1013.5 0.0
30/01:30am 19.4 21.4 16.1 81 2.0 CALM 0 0 0 0 1013.7 1013.5 0.0
30/01:00am 19.6 22.0 17.1 85 1.5 CALM 0 0 0 0 1013.9 1013.7 0.0
30/12:30am 20.4 22.3 16.8 80 2.2 E 2 6 1 3 1014.0 1013.8 0.0
30/12:00am 20.3 23.1 18.0 87 1.4 CALM 0 0 0 0 1014.2 1014.0 0.0
 
Date/Time
WST
Temp
°C
App
Temp
°C
Dew
Point
Rel
Hum
%
Delta-T
°C
Wind Press
QNH
hPa
Press
MSL
hPa
Rain
since 9 am
mm
Dir
 
Spd
km/h
Gust
km/h
Spd
kts
Gust
kts
29/11:30pm 20.8 22.7 15.8 73 3.0 CALM 0 0 0 0 1014.3 1014.1 0.0
29/11:00pm 21.1 23.0 15.8 71 3.2 CALM 0 0 0 0 1014.5 1014.3 0.0
29/10:30pm 21.6 23.7 16.3 72 3.2 CALM 0 4 0 2 1014.5 1014.3 0.0
29/10:00pm 21.9 23.0 15.5 67 3.8 E 4 6 2 3 1014.6 1014.4 0.0
29/09:30pm 22.7 23.6 15.2 62 4.5 ENE 4 7 2 4 1014.8 1014.6 0.0
29/09:00pm 22.5 24.3 15.5 64 4.2 CALM 0 0 0 0 1014.7 1014.5 0.0
29/08:30pm 24.1 25.8 15.1 57 5.4 CALM 0 0 0 0 1014.7 1014.5 0.0
29/08:00pm 24.9 25.1 14.7 53 6.1 NW 7 11 4 6 1014.6 1014.4 0.0
29/07:30pm 24.9 23.9 13.4 48 6.7 NW 11 13 6 7 1014.5 1014.3 0.0
29/07:00pm 23.7 25.3 15.0 58 5.2 CALM 0 0 0 0 1014.3 1014.1 0.0
29/06:30pm 24.9 26.5 14.9 53 6.0 CALM 0 0 0 0 1013.9 1013.7 0.0
29/06:00pm 26.6 28.1 14.6 47 7.2 CALM 0 0 0 0 1013.5 1013.3 0.0
29/05:30pm 28.6 30.3 15.2 44 8.2 CALM 0 0 0 0 1013.1 1012.9 0.0
29/05:00pm 31.0 30.7 13.3 34 10.6 E 7 7 4 4 1012.5 1012.3 0.0
29/04:30pm 33.5 31.6 9.0 22 13.9 E 9 13 5 7 1012.1 1011.9 0.0
29/04:00pm 34.7 32.6 8.3 19 14.9 ENE 9 15 5 8 1012.0 1011.8 0.0
29/03:30pm 35.1 33.7 9.0 20 14.9 E 6 11 3 6 1011.9 1011.7 0.0
29/03:00pm 35.4 32.6 8.4 19 15.3 ESE 13 19 7 10 1011.9 1011.7 0.0
29/02:30pm 35.2 32.4 8.6 19 15.1 ENE 13 20 7 11 1011.8 1011.6 0.0
29/02:00pm 35.6 32.0 8.2 18 15.5 E 17 26 9 14 1011.9 1011.7 0.0
29/01:30pm 35.0 33.2 10.8 23 14.2 ESE 11 24 6 13 1012.1 1011.9 0.0
29/01:00pm 35.0 33.3 10.0 21 14.5 E 9 20 5 11 1012.4 1012.2 0.0
29/12:30pm 34.6 33.0 11.7 25 13.6 NE 11 19 6 10 1013.1 1012.9 0.0
29/12:00pm 34.1 31.7 11.3 25 13.4 SE 15 24 8 13 1013.6 1013.4 0.0
29/11:30am 34.5 32.1 11.5 24 13.6 NE 15 24 8 13 1014.2 1014.0 0.0
29/11:00am 33.7 31.4 11.7 26 13.0 NE 15 24 8 13 1014.7 1014.5 0.0
29/10:30am 33.8 30.7 11.6 26 13.1 NE 19 26 10 14 1015.3 1015.1 0.0
29/10:00am 32.6 31.7 12.6 29 11.9 NNE 9 13 5 7 1015.8 1015.6 0.0
29/09:30am 31.4 29.7 12.5 31 11.2 ENE 13 20 7 11 1016.1 1015.9 0.0
29/09:00am 31.5 30.7 12.9 32 11.1 E 9 15 5 8 1016.3 1016.1 0.0
29/08:30am 29.2 28.9 14.5 40 8.9 SE 9 13 5 7 1016.2 1016.0 0.0
29/08:00am 27.5 27.7 14.3 44 7.9 S 6 7 3 4 1015.9 1015.7 0.0
29/07:30am 26.0 26.9 15.1 51 6.6 SE 4 6 2 3 1015.6 1015.4 0.0
29/07:00am 22.6 23.3 16.2 67 3.9 S 7 9 4 5 1015.2 1015.0 0.0
29/06:30am 20.8 21.8 16.3 75 2.7 SSW 6 7 3 4 1014.8 1014.6 0.0
29/06:00am 17.7 18.5 15.8 89 1.1 SW 6 7 3 4 1014.3 1014.1 0.0
29/05:30am 18.5 20.8 16.7 89 1.1 CALM 0 0 0 0 1013.9 1013.7 0.0
29/05:00am 19.0 21.3 16.7 86 1.4 CALM 0 0 0 0 1013.7 1013.5 0.0
29/04:30am 18.3 20.5 16.5 89 1.1 CALM 0 0 0 0 1013.7 1013.5 0.0
29/04:00am 19.1 21.0 16.8 86 1.4 ESE 2 7 1 4 1013.6 1013.4 0.0
29/03:30am 19.4 20.7 17.1 86 1.4 SE 6 7 3 4 1013.5 1013.3 0.0
29/03:00am 19.9 22.2 17.8 88 1.3 SSW 2 7 1 4 1013.4 1013.2 0.0
29/02:30am 19.6 21.7 17.1 85 1.5 SSE 2 6 1 3 1013.5 1013.3 0.0
29/02:00am 19.6 21.0 16.4 82 1.9 ESE 4 7 2 4 1013.5 1013.3 0.0
29/01:30am 19.9 22.2 16.8 82 1.9 CALM 0 0 0 0 1013.5 1013.3 0.0
29/01:00am 20.1 22.3 16.6 80 2.1 CALM 0 0 0 0 1013.5 1013.3 0.0
29/12:30am 20.3 22.6 16.7 80 2.2 CALM 0 0 0 0 1013.7 1013.5 0.0
29/12:00am 20.8 22.9 16.3 75 2.7 CALM 0 0 0 0 1013.8 1013.6 0.0
 
Date/Time
WST
Temp
°C
App
Temp
°C
Dew
Point
Rel
Hum
%
Delta-T
°C
Wind Press
QNH
hPa
Press
MSL
hPa
Rain
since 9 am
mm
Dir
 
Spd
km/h
Gust
km/h
Spd
kts
Gust
kts
28/11:30pm 21.2 23.5 16.8 76 2.7 CALM 0 0 0 0 1014.0 1013.8 0.0
28/11:00pm 22.2 24.4 16.6 70 3.4 CALM 0 0 0 0 1014.3 1014.1 0.0
28/10:30pm 22.0 24.5 17.3 74 2.9 CALM 0 0 0 0 1014.4 1014.2 0.0
28/10:00pm 22.0 24.3 16.8 72 3.2 CALM 0 0 0 0 1014.6 1014.4 0.0
28/09:30pm 23.2 24.4 16.9 67 3.9 ENE 6 9 3 5 1014.5 1014.3 0.0
28/09:00pm 23.8 24.8 16.3 63 4.6 NE 6 7 3 4 1014.5 1014.3 0.0
28/08:30pm 24.1 24.7 15.9 60 5.0 NNW 7 9 4 5 1014.4 1014.2 0.0
28/08:00pm 23.7 25.8 17.2 67 4.0 SSW 2 6 1 3 1014.1 1013.9 0.0
28/07:30pm 25.2 26.6 17.7 63 4.7 WSW 7 9 4 5 1013.7 1013.5 0.0
28/07:00pm 24.9 27.3 17.0 61 4.9 CALM 0 0 0 0 1013.3 1013.1 0.0
28/06:30pm 26.1 27.8 17.1 57 5.6 ENE 4 6 2 3 1013.1 1012.9 0.0
28/06:00pm 27.0 28.1 16.5 52 6.5 ENE 6 7 3 4 1012.7 1012.5 0.0
28/05:30pm 29.1 31.1 17.0 48 7.6 ENE 2 6 1 3 1012.4 1012.2 0.0
28/05:00pm 31.7 32.6 16.0 38 9.8 ENE 6 7 3 4 1012.0 1011.8 0.0
28/04:30pm 33.8 33.3 13.8 30 12.2 E 9 11 5 6 1011.7 1011.5 0.0
28/04:00pm 34.7 34.3 12.4 26 13.4 SE 6 9 3 5 1011.5 1011.3 0.0
28/03:30pm 35.1 34.4 11.5 24 14.0 NE 6 9 3 5 1011.2 1011.0 0.0
28/03:00pm 35.3 33.8 10.5 22 14.5 SSE 9 17 5 9 1011.1 1010.9 0.0
28/02:30pm 35.2 33.4 10.9 23 14.3 S 11 17 6 9 1011.1 1010.9 0.0
28/02:00pm 35.4 33.7 11.2 23 14.3 SE 11 24 6 13 1011.2 1011.0 0.0
28/01:30pm 35.2 34.0 11.7 24 14.0 E 9 15 5 8 1011.4 1011.2 0.0
28/01:00pm 34.9 32.6 11.7 24 13.8 ENE 15 20 8 11 1011.9 1011.7 0.0
28/12:30pm 35.2 32.9 11.9 24 13.9 E 15 26 8 14 1012.3 1012.1 0.0
28/12:00pm 34.4 32.7 12.3 26 13.2 ENE 13 24 7 13 1012.9 1012.7 0.0
28/11:30am 34.2 32.3 11.8 25 13.3 ESE 13 26 7 14 1013.4 1013.2 0.0
28/11:00am 33.3 32.0 12.5 28 12.4 SSE 11 17 6 9 1013.9 1013.7 0.0
28/10:30am 33.2 32.4 12.9 29 12.2 E 9 15 5 8 1014.2 1014.0 0.0
28/10:00am 32.6 30.1 12.4 29 12.0 E 17 26 9 14 1014.4 1014.2 0.0
28/09:30am 31.0 30.0 13.3 34 10.6 ESE 11 17 6 9 1014.9 1014.7 0.0
28/09:00am 29.8 29.5 13.4 36 9.8 SSW 7 11 4 6 1014.9 1014.7 0.0
28/08:30am 28.4 28.2 13.6 40 8.8 S 7 9 4 5 1015.1 1014.9 0.0
28/08:00am 26.3 26.2 13.8 46 7.4 SSW 7 9 4 5 1015.1 1014.9 0.0
28/07:30am 24.4 25.9 14.7 54 5.8 CALM 0 0 0 0 1014.9 1014.7 0.0
28/07:00am 22.4 22.7 14.6 61 4.6 S 6 7 3 4 1014.6 1014.4 0.0
28/06:30am 20.6 22.9 17.8 84 1.7 SSE 2 9 1 5 1014.3 1014.1 0.0
28/06:00am 18.1 19.3 15.9 87 1.3 ESE 4 9 2 5 1014.0 1013.8 0.0
28/05:30am 17.1 18.7 15.0 87 1.2 CALM 0 0 0 0 1013.7 1013.5 0.0
28/05:00am 16.7 18.3 14.8 88 1.1 CALM 0 0 0 0 1013.3 1013.1 0.0
28/04:30am 17.4 19.1 15.3 87 1.2 CALM 0 0 0 0 1013.0 1012.8 0.0
28/04:00am 17.6 18.2 15.4 87 1.3 S 6 7 3 4 1012.9 1012.7 0.0
28/03:30am 17.4 17.9 15.0 86 1.4 WSW 6 7 3 4 1012.8 1012.6 0.0
28/03:00am 17.4 19.0 14.8 85 1.5 CALM 0 9 0 5 1012.9 1012.7 0.0
28/02:30am 18.1 19.8 15.2 83 1.7 CALM 0 0 0 0 1012.8 1012.6 0.0
28/02:00am 18.8 20.2 15.4 80 2.0 ESE 2 6 1 3 1012.9 1012.7 0.0
28/01:30am 18.9 21.0 16.2 84 1.6 CALM 0 0 0 0 1013.0 1012.8 0.0
28/01:00am 18.8 20.6 15.4 80 2.0 CALM 0 0 0 0 1013.2 1013.0 0.0
28/12:30am 19.6 21.6 16.1 80 2.1 CALM 0 0 0 0 1013.4 1013.2 0.0
28/12:00am 19.5 21.2 15.3 76 2.5 CALM 0 0 0 0 1013.5 1013.3 0.0
 
Date/Time
WST
Temp
°C
App
Temp
°C
Dew
Point
Rel
Hum
%
Delta-T
°C
Wind Press
QNH
hPa
Press
MSL
hPa
Rain
since 9 am
mm
Dir
 
Spd
km/h
Gust
km/h
Spd
kts
Gust
kts
27/11:30pm 20.3 22.0 15.2 72 3.0 CALM 0 0 0 0 1013.7 1013.5 0.0
27/11:00pm 20.9 22.3 15.3 70 3.3 WNW 2 6 1 3 1013.9 1013.7 0.0
27/10:30pm 20.9 22.1 14.8 68 3.6 WNW 2 7 1 4 1014.1 1013.9 0.0
27/10:00pm 21.5 22.9 14.5 64 4.1 CALM 0 0 0 0 1014.2 1014.0 0.0
27/09:30pm 22.2 22.0 14.6 62 4.5 NNE 9 11 5 6 1014.2 1014.0 0.0
27/09:00pm 22.7 23.4 15.5 64 4.3 SSW 6 11 3 6 1014.2 1014.0 0.0
27/08:30pm 22.1 22.8 15.6 66 3.9 ENE 6 17 3 9 1014.0 1013.8 0.0
27/08:00pm 23.3 25.4 16.2 64 4.3 CALM 0 0 0 0 1013.7 1013.5 0.0
27/07:30pm 23.6 25.7 17.3 67 3.9 ESE 2 6 1 3 1013.6 1013.4 0.0
27/07:00pm 23.7 25.9 16.5 64 4.4 CALM 0 0 0 0 1013.3 1013.1 0.0
27/06:30pm 24.9 26.9 15.9 57 5.5 CALM 0 0 0 0 1013.0 1012.8 0.0

Other Formats:

Comma delimited format used in spreadsheet applications
http://www.bom.gov.au/fwo/IDW60801/IDW60801.94216.axf

JavaScript Object Notation format (JSON) in row-major order
http://www.bom.gov.au/fwo/IDW60801/IDW60801.94216.json